Elefsis, Greece

9:42 PM EEST on August 30, 2016 (GMT +0300)
Elefsis Air Base | | Change Station

Elev 102 ft 38.06 °N, 23.56 °E | Updated 22 minutes ago

Clear
Clear
79 °F
Feels Like 79 °F
N
0
Wind Variable Wind from North

Today
High -- | Low -- °F
--% Chance of Precip.
Yesterday
High -- | Low -- °F
Precip. -- in
Pressure 29.98 in
Visibility -9999.0 miles
Clouds
Dew Point 63 °F
Humidity 57%
Rainfall 0.00 in
Snow Depth Not available.
6:54 AM 7:57 PM
Waning Crescent, 3% visible
METAR LGEL 301820Z 00000KT CAVOK 26/17 Q1015
Pressure 29.98 in
Visibility -9999.0 miles
Clouds
Dew Point 63 °F
Humidity 57%
Rainfall 0.00 in
Snow Depth Not available.
6:54 AM 7:57 PM
Waning Crescent, 3% visible
METAR LGEL 301820Z 00000KT CAVOK 26/17 Q1015

10-Day Weather Forecast

×

Almanac

Astronomy

Aug. 30, 2016 Rise Set
Actual Time
Civil Twilight
Nautical Twilight
Astronomical Twilight
Moon
Length of Visible Light
Length of Day
Tomorrow will be .
, % of the Moon is Illuminated

Today's Extremes

Country Highs Country Lows

Community

WunderPhotos

Upload Photos

1,935,875 photos uploaded!

WunderBlog® & News

Nearby

Air Quality

  Air Quality AQ Index Pollutant
Not available.

Snow Depth

Station Depth Elevation

Earthquake Activity

City Distance Mag. Time & Date
Minimum magnitude displayed is 2.5.

Coastal Water Temperatures

Place Temperature

Stations

Nearby Weather Stations

Station Location Temp. Windchill Dew Point Humidity Wind Precip. Elev Updated Type